createdAt,value
2018-08-06T00:01:22.493Z,3.93
2018-08-06T00:03:50.961Z,2.90
2018-08-06T00:06:19.282Z,2.23
2018-08-06T00:08:47.638Z,2.70
2018-08-06T00:11:15.998Z,2.50
2018-08-06T00:13:44.431Z,2.70
2018-08-06T00:16:12.801Z,2.77
2018-08-06T00:18:41.334Z,2.97
2018-08-06T00:21:09.786Z,2.80
2018-08-06T00:23:38.190Z,3.20
2018-08-06T00:26:06.600Z,2.63
2018-08-06T00:28:35.122Z,2.60
2018-08-06T00:31:03.495Z,2.57
2018-08-06T00:33:31.895Z,2.80
2018-08-06T00:36:00.271Z,2.60
2018-08-06T00:38:28.608Z,2.70
2018-08-06T00:40:56.895Z,2.90
2018-08-06T00:43:25.229Z,2.90
2018-08-06T00:45:53.624Z,2.80
2018-08-06T00:48:21.925Z,2.40
2018-08-06T00:50:50.296Z,2.30
2018-08-06T00:53:18.575Z,2.63
2018-08-06T00:55:47.022Z,2.77
2018-08-06T00:58:15.353Z,2.87
2018-08-06T01:00:43.670Z,2.60
2018-08-06T01:03:12.012Z,2.70
2018-08-06T01:05:40.557Z,2.90
2018-08-06T01:08:08.979Z,2.40
2018-08-06T01:10:37.265Z,2.40
2018-08-06T01:13:11.221Z,2.97
2018-08-06T01:15:39.613Z,2.53
2018-08-06T01:18:08.196Z,2.27
2018-08-06T01:20:36.522Z,2.50
2018-08-06T01:23:04.830Z,2.40
2018-08-06T01:25:33.222Z,2.80
2018-08-06T01:28:01.507Z,2.60
2018-08-06T01:30:30.038Z,2.50
2018-08-06T01:32:58.370Z,2.67
2018-08-06T01:35:26.657Z,2.30
2018-08-06T01:37:55.036Z,2.57
2018-08-06T01:40:23.392Z,2.40
2018-08-06T01:42:51.691Z,2.40
2018-08-06T01:45:20.015Z,2.60
2018-08-06T01:47:48.373Z,2.50
2018-08-06T01:50:16.879Z,3.03
2018-08-06T01:52:45.242Z,2.50
2018-08-06T01:55:13.635Z,2.63
2018-08-06T01:57:42.203Z,3.00
2018-08-06T02:00:12.739Z,2.27
2018-08-06T02:02:41.085Z,2.40
2018-08-06T02:05:09.918Z,2.80
2018-08-06T02:07:38.694Z,2.73
2018-08-06T02:10:09.954Z,2.80
2018-08-06T02:12:38.342Z,2.70
2018-08-06T02:15:08.129Z,2.90
2018-08-06T02:17:36.798Z,2.70
2018-08-06T02:20:06.147Z,2.60
2018-08-06T02:22:34.507Z,3.00
2018-08-06T02:25:02.905Z,2.63
2018-08-06T02:27:31.299Z,2.50
2018-08-06T02:29:59.696Z,2.60
2018-08-06T02:32:28.046Z,2.50
2018-08-06T02:34:56.377Z,2.70
2018-08-06T02:37:24.837Z,2.50
2018-08-06T02:39:53.290Z,2.80
2018-08-06T02:42:21.674Z,2.37
2018-08-06T02:44:50.018Z,2.83
2018-08-06T02:47:18.387Z,3.17
2018-08-06T02:49:46.681Z,2.60
2018-08-06T02:52:15.048Z,2.80
2018-08-06T02:54:43.380Z,3.10
2018-08-06T02:57:11.734Z,2.77
2018-08-06T02:59:40.060Z,2.57
2018-08-06T03:02:08.412Z,3.27
2018-08-06T03:04:36.791Z,2.70
2018-08-06T03:07:05.471Z,2.53
2018-08-06T03:09:33.866Z,2.50
2018-08-06T03:12:02.195Z,2.60
2018-08-06T03:14:30.670Z,2.67
2018-08-06T03:16:59.019Z,2.90
2018-08-06T03:19:27.396Z,3.03
2018-08-06T03:21:56.959Z,3.27
2018-08-06T03:24:25.311Z,3.20
2018-08-06T03:26:53.626Z,3.10
2018-08-06T03:29:21.982Z,3.10
2018-08-06T03:31:50.311Z,2.80
2018-08-06T03:34:18.665Z,3.20
2018-08-06T03:36:47.027Z,3.07
2018-08-06T03:39:15.387Z,3.33
2018-08-06T03:41:43.728Z,3.30
2018-08-06T03:44:12.158Z,3.30
2018-08-06T03:46:40.638Z,2.87
2018-08-06T03:49:08.927Z,3.10
2018-08-06T03:51:37.234Z,2.77
2018-08-06T03:54:05.635Z,2.97
2018-08-06T03:56:33.984Z,3.37
2018-08-06T03:59:02.356Z,3.10
2018-08-06T04:01:30.954Z,3.00
2018-08-06T04:03:59.303Z,2.90
2018-08-06T04:06:27.667Z,3.10
2018-08-06T04:08:55.994Z,3.20
2018-08-06T04:11:24.400Z,3.40
2018-08-06T04:13:53.252Z,3.33
2018-08-06T04:16:21.643Z,3.17
2018-08-06T04:18:49.995Z,3.47
2018-08-06T04:21:18.346Z,3.43
2018-08-06T04:23:46.722Z,3.07
2018-08-06T04:26:15.098Z,3.63
2018-08-06T04:28:43.491Z,3.30
2018-08-06T04:31:11.883Z,3.33
2018-08-06T04:33:40.216Z,3.53
2018-08-06T04:36:08.565Z,3.97
2018-08-06T04:38:37.017Z,3.60
2018-08-06T04:41:05.332Z,3.47
2018-08-06T04:43:33.690Z,3.90
2018-08-06T04:46:02.202Z,3.70
2018-08-06T04:48:30.732Z,3.90
2018-08-06T04:50:59.047Z,3.43
2018-08-06T04:53:27.728Z,3.30
2018-08-06T04:55:56.715Z,3.50
2018-08-06T04:58:25.223Z,3.53
2018-08-06T05:00:53.558Z,3.80
2018-08-06T05:03:22.055Z,3.50
2018-08-06T05:05:50.386Z,3.90
2018-08-06T05:08:18.774Z,3.93
2018-08-06T05:10:47.246Z,3.70
2018-08-06T05:13:15.594Z,4.27
2018-08-06T05:15:43.934Z,4.00
2018-08-06T05:18:12.483Z,4.00
2018-08-06T05:20:41.028Z,3.70
2018-08-06T05:23:09.435Z,4.20
2018-08-06T05:25:37.930Z,3.47
2018-08-06T05:28:06.960Z,3.40
2018-08-06T05:30:35.268Z,3.57
2018-08-06T05:33:03.670Z,3.77
2018-08-06T05:35:32.039Z,3.80
2018-08-06T05:38:00.519Z,3.37
2018-08-06T05:40:28.853Z,3.43
2018-08-06T05:42:57.223Z,3.70
2018-08-06T05:45:25.653Z,3.13
2018-08-06T05:47:54.193Z,3.10
2018-08-06T05:50:22.520Z,3.20
2018-08-06T05:52:51.150Z,3.33
2018-08-06T05:55:19.580Z,3.00
2018-08-06T05:57:47.931Z,3.37
2018-08-06T06:00:18.431Z,2.97
2018-08-06T06:02:47.366Z,3.10
2018-08-06T06:05:15.737Z,3.00
2018-08-06T06:07:44.184Z,2.90
2018-08-06T06:10:14.481Z,2.95
2018-08-06T06:12:42.876Z,2.87
2018-08-06T06:15:14.267Z,2.75
2018-08-06T06:17:43.231Z,2.90
2018-08-06T06:20:11.693Z,3.10
2018-08-06T06:22:40.048Z,2.60
2018-08-06T06:25:11.054Z,2.45
2018-08-06T06:27:39.547Z,2.40
2018-08-06T06:30:10.287Z,2.72
2018-08-06T06:32:38.675Z,2.80
2018-08-06T06:35:07.211Z,3.22
2018-08-06T06:37:35.712Z,2.77
2018-08-06T06:40:04.258Z,2.98
2018-08-06T06:42:32.674Z,2.50
2018-08-06T06:45:01.117Z,2.80
2018-08-06T06:47:29.468Z,2.50
2018-08-06T06:49:58.083Z,2.50
2018-08-06T06:52:26.402Z,2.10
2018-08-06T06:54:54.783Z,2.22
2018-08-06T06:57:23.114Z,2.20
2018-08-06T06:59:51.462Z,2.22
2018-08-06T07:02:19.905Z,2.08
2018-08-06T07:04:48.250Z,2.30
2018-08-06T07:07:16.611Z,2.10
2018-08-06T07:09:45.767Z,2.00
2018-08-06T07:12:14.256Z,2.37
2018-08-06T07:14:42.590Z,2.10
2018-08-06T07:17:10.980Z,2.20
2018-08-06T07:19:39.325Z,2.35
2018-08-06T07:22:07.753Z,2.35
2018-08-06T07:24:36.110Z,2.12
2018-08-06T07:27:04.508Z,2.25
2018-08-06T07:29:32.889Z,1.90
2018-08-06T07:32:01.296Z,2.30
2018-08-06T07:34:29.669Z,2.15
2018-08-06T07:36:58.278Z,2.40
2018-08-06T07:39:26.629Z,2.45
2018-08-06T07:41:55.010Z,2.58
2018-08-06T07:44:23.353Z,2.30
2018-08-06T07:46:51.803Z,2.10
2018-08-06T07:49:20.525Z,2.25
2018-08-06T07:51:48.895Z,2.35
2018-08-06T07:54:17.251Z,2.50
2018-08-06T07:56:45.627Z,2.20
2018-08-06T07:59:13.955Z,2.10
2018-08-06T08:01:42.525Z,2.30
2018-08-06T08:04:10.903Z,2.22
2018-08-06T08:06:39.275Z,2.33
2018-08-06T08:09:09.488Z,2.22
2018-08-06T08:11:38.266Z,2.25
2018-08-06T08:14:06.699Z,2.25
2018-08-06T08:16:35.930Z,2.30
2018-08-06T08:19:04.291Z,2.22
2018-08-06T08:21:32.648Z,2.20
2018-08-06T08:24:01.254Z,2.00
2018-08-06T08:26:29.650Z,2.02
2018-08-06T08:28:58.303Z,1.90
2018-08-06T08:31:27.037Z,1.90
2018-08-06T08:33:55.428Z,1.90
2018-08-06T08:36:23.768Z,2.12
2018-08-06T08:38:52.088Z,2.17
2018-08-06T08:41:20.587Z,1.95
2018-08-06T08:43:48.930Z,1.95
2018-08-06T08:46:17.320Z,2.10
2018-08-06T08:48:45.647Z,1.92
2018-08-06T08:51:14.040Z,1.82
2018-08-06T08:53:42.455Z,2.02
2018-08-06T08:56:10.847Z,2.33
2018-08-06T08:58:39.271Z,2.00
2018-08-06T09:01:07.562Z,1.80
2018-08-06T09:03:35.912Z,1.90
2018-08-06T09:06:04.500Z,1.98
2018-08-06T09:08:33.287Z,2.42
2018-08-06T09:11:01.978Z,1.87
2018-08-06T09:13:30.397Z,1.80
2018-08-06T09:15:58.803Z,2.00
2018-08-06T09:18:27.227Z,2.12
2018-08-06T09:20:55.621Z,2.02
2018-08-06T09:23:23.953Z,1.80
2018-08-06T09:25:52.263Z,1.90
2018-08-06T09:28:20.763Z,1.75
2018-08-06T09:30:49.110Z,1.92
2018-08-06T09:33:17.413Z,1.72
2018-08-06T09:35:45.798Z,1.70
2018-08-06T09:38:14.122Z,1.65
2018-08-06T09:40:42.510Z,1.70
2018-08-06T09:43:10.994Z,2.42
2018-08-06T09:45:39.378Z,1.95
2018-08-06T09:48:07.738Z,1.70
2018-08-06T09:50:36.192Z,1.82
2018-08-06T09:53:04.592Z,1.62
2018-08-06T09:55:32.995Z,1.50
2018-08-06T09:58:01.282Z,1.82
2018-08-06T10:00:34.946Z,1.72
2018-08-06T10:03:03.511Z,1.70
2018-08-06T10:05:31.901Z,2.00
2018-08-06T10:08:00.226Z,1.70
2018-08-06T10:10:28.581Z,1.70
2018-08-06T10:12:57.047Z,1.65
2018-08-06T10:15:25.362Z,2.10
2018-08-06T10:17:54.781Z,1.67
2018-08-06T10:20:24.375Z,1.70
2018-08-06T10:22:52.686Z,1.85
2018-08-06T10:25:21.027Z,1.80
2018-08-06T10:27:49.481Z,2.10
2018-08-06T10:30:19.213Z,1.80
2018-08-06T10:32:47.485Z,1.87
2018-08-06T10:35:16.934Z,2.08
2018-08-06T10:37:45.446Z,1.50
2018-08-06T10:40:18.551Z,1.87
2018-08-06T10:42:46.937Z,1.80
2018-08-06T10:45:17.214Z,1.55
2018-08-06T10:47:45.574Z,2.00
2018-08-06T10:50:13.891Z,1.65
2018-08-06T10:52:42.231Z,1.80
2018-08-06T10:55:11.073Z,1.60
2018-08-06T10:57:40.377Z,1.60
2018-08-06T11:00:16.211Z,1.60
2018-08-06T11:02:44.695Z,1.60
2018-08-06T11:05:14.012Z,1.55
2018-08-06T11:07:42.359Z,1.75
2018-08-06T11:10:12.913Z,1.47
2018-08-06T11:12:41.838Z,1.70
2018-08-06T11:15:15.436Z,1.90
2018-08-06T11:17:43.762Z,1.50
2018-08-06T11:20:13.051Z,1.40
2018-08-06T11:22:41.659Z,1.50
2018-08-06T11:25:11.437Z,1.45
2018-08-06T11:27:39.745Z,1.42
2018-08-06T11:30:12.171Z,1.50
2018-08-06T11:32:40.466Z,1.32
2018-08-06T11:35:09.538Z,1.70
2018-08-06T11:37:37.976Z,1.60
2018-08-06T11:40:07.597Z,1.90
2018-08-06T11:42:36.257Z,1.75
2018-08-06T11:45:05.050Z,1.60
2018-08-06T11:47:33.535Z,1.50
2018-08-06T11:50:01.870Z,1.47
2018-08-06T11:52:30.147Z,1.35
2018-08-06T11:54:58.490Z,1.62
2018-08-06T11:57:26.867Z,1.70
2018-08-06T11:59:55.152Z,1.50
2018-08-06T12:02:23.615Z,1.42
2018-08-06T12:04:52.117Z,1.30
2018-08-06T12:07:20.618Z,1.32
2018-08-06T12:09:49.114Z,1.37
2018-08-06T12:12:17.658Z,1.47
2018-08-06T12:14:45.982Z,1.50
2018-08-06T12:17:14.535Z,1.30
2018-08-06T12:19:42.979Z,1.30
2018-08-06T12:22:11.419Z,1.50
2018-08-06T12:24:39.744Z,1.30
2018-08-06T12:27:08.234Z,1.30
2018-08-06T12:29:36.919Z,1.20
2018-08-06T12:32:05.427Z,1.40
2018-08-06T12:34:34.106Z,1.40
2018-08-06T12:37:02.559Z,1.30
2018-08-06T12:39:31.069Z,1.70
2018-08-06T12:41:59.477Z,1.45
2018-08-06T12:44:28.032Z,1.57
2018-08-06T12:46:56.448Z,1.40
2018-08-06T12:49:24.803Z,1.40
2018-08-06T12:51:53.273Z,1.50
2018-08-06T12:54:21.775Z,1.40
2018-08-06T12:56:50.311Z,1.40
2018-08-06T12:59:18.807Z,1.57
2018-08-06T13:01:47.320Z,1.80
2018-08-06T13:04:15.938Z,1.70
2018-08-06T13:06:44.335Z,1.45
2018-08-06T13:09:13.112Z,1.60
2018-08-06T13:11:41.814Z,1.52
2018-08-06T13:14:10.228Z,1.70
2018-08-06T13:16:38.581Z,1.17
2018-08-06T13:19:07.267Z,1.40
2018-08-06T13:21:36.044Z,1.40
2018-08-06T13:24:04.698Z,1.80
2018-08-06T13:26:33.167Z,1.20
2018-08-06T13:29:01.942Z,1.40
2018-08-06T13:31:30.287Z,1.45
2018-08-06T13:33:58.642Z,1.32
2018-08-06T13:36:26.959Z,1.40
2018-08-06T13:38:55.335Z,1.40
2018-08-06T13:41:23.742Z,1.40
2018-08-06T13:43:52.042Z,1.30
2018-08-06T13:46:20.341Z,1.45
2018-08-06T13:48:48.662Z,1.42
2018-08-06T13:51:16.940Z,1.30
2018-08-06T13:53:45.400Z,1.30
2018-08-06T13:56:13.756Z,1.22
2018-08-06T13:58:42.085Z,1.40
2018-08-06T14:01:10.502Z,1.45
2018-08-06T14:03:38.831Z,1.40
2018-08-06T14:06:07.174Z,1.40
2018-08-06T14:08:35.450Z,1.40
2018-08-06T14:11:03.848Z,1.50
2018-08-06T14:13:32.188Z,1.40
2018-08-06T14:16:00.685Z,1.55
2018-08-06T14:18:29.112Z,1.32
2018-08-06T14:20:57.472Z,1.40
2018-08-06T14:23:26.444Z,1.20
2018-08-06T14:25:54.796Z,1.40
2018-08-06T14:28:23.126Z,1.10
2018-08-06T14:30:51.483Z,1.50
2018-08-06T14:33:19.846Z,1.37
2018-08-06T14:35:48.146Z,1.50
2018-08-06T14:38:16.483Z,1.17
2018-08-06T14:40:44.954Z,1.30
2018-08-06T14:43:13.289Z,1.10
2018-08-06T14:45:41.619Z,1.20
2018-08-06T14:48:09.969Z,1.20
2018-08-06T14:50:38.315Z,1.20
2018-08-06T14:53:06.682Z,1.25
2018-08-06T14:55:35.048Z,1.20
2018-08-06T14:58:03.421Z,1.20
2018-08-06T15:00:31.690Z,1.10
2018-08-06T15:02:59.973Z,1.17
2018-08-06T15:05:28.324Z,1.52
2018-08-06T15:07:56.674Z,1.50
2018-08-06T15:10:24.998Z,1.25
2018-08-06T15:12:53.306Z,1.30
2018-08-06T15:15:21.723Z,1.20
2018-08-06T15:17:50.048Z,1.40
2018-08-06T15:20:19.332Z,1.50
2018-08-06T15:22:47.898Z,1.30
2018-08-06T15:25:17.827Z,1.30
2018-08-06T15:27:52.618Z,1.20
2018-08-06T15:30:21.013Z,1.20
2018-08-06T15:32:49.354Z,1.22
2018-08-06T15:35:17.688Z,1.47
2018-08-06T15:37:46.057Z,1.37
2018-08-06T15:40:17.408Z,1.32
2018-08-06T15:42:45.777Z,1.20
2018-08-06T15:45:14.631Z,1.25
2018-08-06T15:47:44.001Z,1.17
2018-08-06T15:50:15.613Z,1.27
2018-08-06T15:52:44.016Z,1.40
2018-08-06T15:55:12.643Z,1.20
2018-08-06T15:57:41.258Z,1.30
2018-08-06T16:00:11.980Z,1.20
2018-08-06T16:02:40.363Z,1.27
2018-08-06T16:05:09.584Z,1.30
2018-08-06T16:07:38.105Z,1.40
2018-08-06T16:10:07.767Z,1.37
2018-08-06T16:12:36.077Z,1.32
2018-08-06T16:15:05.112Z,1.35
2018-08-06T16:17:33.410Z,1.25
2018-08-06T16:20:01.756Z,1.27
2018-08-06T16:22:30.285Z,1.40
2018-08-06T16:24:58.613Z,1.20
2018-08-06T16:27:26.978Z,1.40
2018-08-06T16:29:55.499Z,1.60
2018-08-06T16:32:23.860Z,1.37
2018-08-06T16:34:52.223Z,1.37
2018-08-06T16:37:20.557Z,1.60
2018-08-06T16:39:48.961Z,1.60
2018-08-06T16:42:17.359Z,1.20
2018-08-06T16:44:45.682Z,1.50
2018-08-06T16:47:14.167Z,1.20
2018-08-06T16:49:42.539Z,1.45
2018-08-06T16:52:11.001Z,2.30
2018-08-06T16:54:39.314Z,6.92
2018-08-06T16:57:07.681Z,4.17
2018-08-06T16:59:36.031Z,2.77
2018-08-06T17:02:04.379Z,3.40
2018-08-06T17:04:32.773Z,2.67
2018-08-06T17:07:01.163Z,6.00
2018-08-06T17:09:29.481Z,2.30
2018-08-06T17:11:57.790Z,1.87
2018-08-06T17:14:26.842Z,2.05
2018-08-06T17:16:55.194Z,1.50
2018-08-06T17:19:23.725Z,1.42
2018-08-06T17:21:52.275Z,1.40
2018-08-06T17:24:20.683Z,1.60
2018-08-06T17:26:49.194Z,2.37
2018-08-06T17:29:17.591Z,2.00
2018-08-06T17:31:45.902Z,1.70
2018-08-06T17:34:14.245Z,4.78
2018-08-06T17:36:42.678Z,6.60
2018-08-06T17:39:11.624Z,11.03
2018-08-06T17:41:40.583Z,5.58
2018-08-06T17:44:08.980Z,6.92
2018-08-06T17:46:37.317Z,6.42
2018-08-06T17:49:06.192Z,8.68
2018-08-06T17:51:34.580Z,10.90
2018-08-06T17:54:03.150Z,5.22
2018-08-06T17:56:31.526Z,8.50
2018-08-06T17:58:59.855Z,9.38
2018-08-06T18:01:28.198Z,5.05
2018-08-06T18:03:56.779Z,2.83
2018-08-06T18:06:25.267Z,2.70
2018-08-06T18:08:53.670Z,2.15
2018-08-06T18:11:22.298Z,2.27
2018-08-06T18:13:51.006Z,1.40
2018-08-06T18:16:19.359Z,1.50
2018-08-06T18:18:47.738Z,1.40
2018-08-06T18:21:16.092Z,2.47
2018-08-06T18:23:44.410Z,1.90
2018-08-06T18:26:13.000Z,2.10
2018-08-06T18:28:41.380Z,1.90
2018-08-06T18:31:09.757Z,2.08
2018-08-06T18:33:38.139Z,1.67
2018-08-06T18:36:06.553Z,1.70
2018-08-06T18:38:35.136Z,1.50
2018-08-06T18:41:04.765Z,1.60
2018-08-06T18:43:33.186Z,1.55
2018-08-06T18:46:01.554Z,1.40
2018-08-06T18:48:29.831Z,1.60
2018-08-06T18:50:58.375Z,1.80
2018-08-06T18:53:26.987Z,1.67
2018-08-06T18:55:55.503Z,1.82
2018-08-06T18:58:24.286Z,1.60
2018-08-06T19:01:19.651Z,1.92
2018-08-06T19:03:49.504Z,1.70
2018-08-06T19:06:17.907Z,1.70
2018-08-06T19:08:46.427Z,1.60
2018-08-06T19:11:14.974Z,1.77
2018-08-06T19:13:48.706Z,1.60
2018-08-06T19:16:17.055Z,1.70
2018-08-06T19:18:50.775Z,1.60
2018-08-06T19:21:19.492Z,1.60
2018-08-06T19:23:47.868Z,1.85
2018-08-06T19:26:16.236Z,1.55
2018-08-06T19:28:44.578Z,1.70
2018-08-06T19:31:18.178Z,1.40
2018-08-06T19:33:46.617Z,1.57
2018-08-06T19:36:14.927Z,1.70
2018-08-06T19:38:43.302Z,1.80
2018-08-06T19:41:11.627Z,1.70
2018-08-06T19:43:40.200Z,1.77
2018-08-06T19:46:09.518Z,1.95
2018-08-06T19:48:37.913Z,1.57
2018-08-06T19:51:08.852Z,1.67
2018-08-06T19:53:48.402Z,1.80
2018-08-06T19:56:18.054Z,1.70
2018-08-06T19:58:47.722Z,1.85
2018-08-06T20:01:16.333Z,1.92
2018-08-06T20:03:45.972Z,1.80
2018-08-06T20:06:17.689Z,1.87
2018-08-06T20:08:50.258Z,1.85
2018-08-06T20:11:22.795Z,1.80
2018-08-06T20:13:53.035Z,1.72
2018-08-06T20:16:22.101Z,1.80
2018-08-06T20:19:01.970Z,1.67
2018-08-06T20:21:34.446Z,1.92
2018-08-06T20:24:15.845Z,1.90
2018-08-06T20:26:48.118Z,1.82
2018-08-06T20:29:18.489Z,1.92
2018-08-06T20:32:05.251Z,2.33
2018-08-06T20:40:24.802Z,1.90
2018-08-06T20:43:15.983Z,2.02
2018-08-06T20:46:07.987Z,1.90
2018-08-06T20:48:39.113Z,1.90
2018-08-06T20:51:12.707Z,1.72
2018-08-06T20:53:41.029Z,1.85
2018-08-06T20:56:09.486Z,1.90
2018-08-06T20:58:38.793Z,1.87
2018-08-06T21:01:10.532Z,1.80
2018-08-06T21:03:39.973Z,2.17
2018-08-06T21:06:08.409Z,1.90
2018-08-06T21:08:38.677Z,1.90
2018-08-06T21:11:07.679Z,1.80
2018-08-06T21:13:36.229Z,2.05
2018-08-06T21:16:07.067Z,1.92
2018-08-06T21:18:36.944Z,2.15
2018-08-06T21:21:05.390Z,1.72
2018-08-06T21:23:33.806Z,1.70
2018-08-06T21:26:03.225Z,1.92
2018-08-06T21:28:34.082Z,1.90
2018-08-06T21:31:02.405Z,2.00
2018-08-06T21:33:33.339Z,2.30
2018-08-06T21:36:03.973Z,1.85
2018-08-06T21:38:34.005Z,1.80
2018-08-06T21:41:02.340Z,1.85
2018-08-06T21:43:30.762Z,2.12
2018-08-06T21:45:59.147Z,2.17
2018-08-06T21:48:28.097Z,1.80
2018-08-06T21:50:56.741Z,1.80
2018-08-06T21:53:26.528Z,1.62
2018-08-06T21:55:55.761Z,2.02
2018-08-06T21:58:26.078Z,2.10
2018-08-06T22:00:54.913Z,2.22
2018-08-06T22:03:23.892Z,2.20
2018-08-06T22:05:53.327Z,1.72
2018-08-06T22:08:23.626Z,2.00
2018-08-06T22:10:52.010Z,2.10
2018-08-06T22:13:20.341Z,2.20
2018-08-06T22:15:55.449Z,2.30
2018-08-06T22:18:25.150Z,2.47
2018-08-06T22:20:54.253Z,2.00
2018-08-06T22:23:23.675Z,2.10
2018-08-06T22:25:52.643Z,2.08
2018-08-06T22:28:22.948Z,2.22
2018-08-06T22:30:51.360Z,2.05
2018-08-06T22:33:20.338Z,2.20
2018-08-06T22:35:48.703Z,1.92
2018-08-06T22:38:17.712Z,2.12
2018-08-06T22:40:46.909Z,1.98
2018-08-06T22:43:15.962Z,2.10
2018-08-06T22:45:46.706Z,2.65
2018-08-06T22:48:15.177Z,1.98
2018-08-06T22:50:44.889Z,2.30
2018-08-06T22:53:14.805Z,2.02
2018-08-06T22:55:54.379Z,2.15
2018-08-06T22:58:24.521Z,2.15
2018-08-06T23:04:16.281Z,2.00
2018-08-06T23:06:44.658Z,2.08
2018-08-06T23:09:13.388Z,2.50
2018-08-06T23:11:42.218Z,2.33
2018-08-06T23:14:10.537Z,1.90
2018-08-06T23:16:39.400Z,2.10
2018-08-06T23:19:07.733Z,1.95
2018-08-06T23:21:36.217Z,2.20
2018-08-06T23:24:05.127Z,2.08
2018-08-06T23:26:33.995Z,2.00
2018-08-06T23:29:02.982Z,2.20
2018-08-06T23:31:31.384Z,2.20
2018-08-06T23:33:59.844Z,2.60
2018-08-06T23:36:28.266Z,1.98
2018-08-06T23:38:56.781Z,2.10
2018-08-06T23:41:25.269Z,2.20
2018-08-06T23:43:53.657Z,1.87
2018-08-06T23:46:22.073Z,2.22
2018-08-06T23:48:50.357Z,1.98
2018-08-06T23:51:18.814Z,2.00
2018-08-06T23:53:47.270Z,2.27
2018-08-06T23:56:15.733Z,2.05
2018-08-06T23:58:44.121Z,2.12
